createdAt,value
2018-01-23T00:01:14.503Z,5.40
2018-01-23T00:03:42.000Z,5.40
2018-01-23T00:06:09.479Z,5.40
2018-01-23T00:08:36.979Z,5.40
2018-01-23T00:11:21.118Z,5.40
2018-01-23T00:13:49.602Z,5.40
2018-01-23T00:16:18.074Z,5.40
2018-01-23T00:18:45.577Z,5.40
2018-01-23T00:21:13.067Z,5.50
2018-01-23T00:24:01.847Z,5.60
2018-01-23T00:26:30.101Z,5.60
2018-01-23T00:28:57.604Z,5.60
2018-01-23T00:31:26.851Z,5.60
2018-01-23T00:33:56.307Z,5.60
2018-01-23T00:36:27.118Z,5.60
2018-01-23T00:38:55.527Z,5.60
2018-01-23T00:41:29.219Z,5.70
2018-01-23T00:43:56.710Z,5.70
2018-01-23T00:46:24.199Z,5.70
2018-01-23T00:48:52.668Z,5.70
2018-01-23T00:51:20.163Z,5.70
2018-01-23T00:53:47.630Z,5.70
2018-01-23T00:56:15.149Z,5.70
2018-01-23T00:58:43.389Z,5.80
2018-01-23T01:01:10.882Z,5.80
2018-01-23T01:03:38.359Z,5.80
2018-01-23T01:06:06.629Z,5.80
2018-01-23T01:08:34.106Z,5.70
2018-01-23T01:11:01.617Z,5.80
2018-01-23T01:13:29.095Z,5.70
2018-01-23T01:15:56.583Z,5.80
2018-01-23T01:18:24.051Z,5.90
2018-01-23T01:20:51.542Z,5.80
2018-01-23T01:23:22.547Z,5.90
2018-01-23T01:25:51.987Z,5.90
2018-01-23T01:28:19.461Z,5.90
2018-01-23T01:30:52.667Z,5.90
2018-01-23T01:33:20.148Z,6.00
2018-01-23T01:35:47.642Z,6.00
2018-01-23T01:38:15.111Z,5.90
2018-01-23T01:40:44.603Z,5.90
2018-01-23T01:43:12.076Z,5.90
2018-01-23T01:45:39.553Z,5.90
2018-01-23T01:48:07.048Z,5.90
2018-01-23T01:50:35.295Z,5.90
2018-01-23T01:53:04.706Z,5.80
2018-01-23T01:55:42.155Z,5.80
2018-01-23T01:58:10.420Z,5.90
2018-01-23T02:00:38.870Z,5.80
2018-01-23T02:03:06.370Z,5.90
2018-01-23T02:05:33.838Z,5.90
2018-01-23T02:08:01.342Z,5.90
2018-01-23T02:10:29.570Z,5.90
2018-01-23T02:12:57.068Z,5.90
2018-01-23T02:15:24.543Z,5.90
2018-01-23T02:17:53.943Z,5.90
2018-01-23T02:20:26.407Z,5.90
2018-01-23T02:22:57.998Z,5.90
2018-01-23T02:25:25.471Z,5.90
2018-01-23T02:28:03.352Z,5.90
2018-01-23T02:30:43.087Z,5.90
2018-01-23T02:33:11.355Z,5.90
2018-01-23T02:35:38.834Z,5.90
2018-01-23T02:38:06.327Z,5.90
2018-01-23T02:40:34.566Z,5.90
2018-01-23T02:43:02.051Z,5.90
2018-01-23T02:45:29.527Z,5.90
2018-01-23T02:47:57.982Z,5.90
2018-01-23T02:50:31.066Z,5.90
2018-01-23T02:52:58.568Z,5.90
2018-01-23T02:55:29.495Z,5.90
2018-01-23T02:57:58.003Z,5.90
2018-01-23T03:00:25.476Z,5.90
2018-01-23T03:02:52.980Z,5.90
2018-01-23T03:05:21.226Z,5.90
2018-01-23T03:08:13.922Z,5.80
2018-01-23T03:10:41.399Z,5.90
2018-01-23T03:13:10.883Z,5.80
2018-01-23T03:15:38.355Z,5.80
2018-01-23T03:18:05.857Z,5.80
2018-01-23T03:20:33.351Z,5.80
2018-01-23T03:23:00.843Z,5.90
2018-01-23T03:25:28.348Z,5.80
2018-01-23T03:27:55.823Z,5.80
2018-01-23T03:30:33.185Z,5.80
2018-01-23T03:33:01.587Z,5.80
2018-01-23T03:35:29.082Z,5.80
2018-01-23T03:37:57.535Z,5.80
2018-01-23T03:40:25.030Z,5.80
2018-01-23T03:42:52.507Z,5.80
2018-01-23T03:45:20.006Z,5.80
2018-01-23T03:47:47.480Z,5.80
2018-01-23T03:50:15.748Z,5.90
2018-01-23T03:52:43.231Z,5.80
2018-01-23T03:55:10.727Z,5.90
2018-01-23T03:57:38.967Z,5.90
2018-01-23T04:00:06.463Z,5.80
2018-01-23T04:02:34.714Z,5.90
2018-01-23T04:05:02.220Z,5.80
2018-01-23T04:07:30.472Z,5.90
2018-01-23T04:09:57.962Z,5.80
2018-01-23T04:12:25.434Z,5.90
2018-01-23T04:14:52.934Z,5.90
2018-01-23T04:17:21.180Z,6.00
2018-01-23T04:19:48.686Z,6.00
2018-01-23T04:22:16.927Z,5.90
2018-01-23T04:24:44.414Z,5.90
2018-01-23T04:27:20.137Z,5.90
2018-01-23T04:29:53.570Z,5.90
2018-01-23T04:32:21.063Z,6.00
2018-01-23T04:34:48.555Z,5.90
2018-01-23T04:37:16.816Z,5.90
2018-01-23T04:39:44.287Z,5.90
2018-01-23T04:42:11.784Z,5.90
2018-01-23T04:44:40.024Z,5.90
2018-01-23T04:47:07.510Z,5.90
2018-01-23T04:49:34.990Z,5.90
2018-01-23T04:52:02.492Z,5.90
2018-01-23T04:54:30.038Z,5.90
2018-01-23T04:56:57.498Z,5.90
2018-01-23T04:59:24.977Z,5.90
2018-01-23T05:01:52.471Z,5.90
2018-01-23T05:04:19.957Z,5.90
2018-01-23T05:06:47.447Z,5.90
2018-01-23T05:09:14.927Z,5.80
2018-01-23T05:11:42.419Z,5.80
2018-01-23T05:14:09.891Z,5.80
2018-01-23T05:16:37.378Z,5.80
2018-01-23T05:19:05.620Z,5.90
2018-01-23T05:21:33.127Z,5.80
2018-01-23T05:24:00.598Z,5.90
2018-01-23T05:26:28.856Z,5.90
2018-01-23T05:28:57.332Z,5.90
2018-01-23T05:31:26.738Z,6.00
2018-01-23T05:34:04.962Z,5.90
2018-01-23T05:36:40.714Z,5.90
2018-01-23T05:39:08.186Z,5.90
2018-01-23T05:41:35.663Z,5.90
2018-01-23T05:44:03.193Z,5.90
2018-01-23T05:46:30.663Z,6.00
2018-01-23T05:48:58.925Z,6.00
2018-01-23T05:51:26.403Z,6.00
2018-01-23T05:53:53.896Z,6.00
2018-01-23T05:56:22.147Z,6.00
2018-01-23T05:58:49.648Z,5.90
2018-01-23T06:01:17.122Z,5.90
2018-01-23T06:03:45.387Z,5.90
2018-01-23T06:06:12.862Z,5.90
2018-01-23T06:08:40.367Z,6.00
2018-01-23T06:11:08.618Z,5.90
2018-01-23T06:13:36.116Z,5.90
2018-01-23T06:16:04.359Z,6.00
2018-01-23T06:18:31.859Z,5.90
2018-01-23T06:20:59.338Z,6.00
2018-01-23T06:23:27.595Z,6.00
2018-01-23T06:25:55.071Z,6.00
2018-01-23T06:28:22.567Z,6.00
2018-01-23T06:30:50.807Z,5.90
2018-01-23T06:33:18.299Z,5.90
2018-01-23T06:35:45.788Z,6.00
2018-01-23T06:38:17.827Z,5.90
2018-01-23T06:40:45.303Z,5.80
2018-01-23T06:43:12.775Z,5.90
2018-01-23T06:45:40.272Z,5.80
2018-01-23T06:48:07.747Z,5.80
2018-01-23T06:50:36.003Z,5.80
2018-01-23T06:53:03.478Z,5.80
2018-01-23T06:55:30.978Z,5.90
2018-01-23T06:57:59.225Z,5.90
2018-01-23T07:00:26.726Z,5.80
2018-01-23T07:02:54.203Z,5.90
2018-01-23T07:05:23.491Z,5.90
2018-01-23T07:07:50.967Z,5.80
2018-01-23T07:10:18.463Z,5.90
2018-01-23T07:12:46.707Z,6.00
2018-01-23T07:15:14.226Z,5.90
2018-01-23T07:17:42.480Z,6.00
2018-01-23T07:20:09.975Z,5.90
2018-01-23T07:22:38.219Z,6.00
2018-01-23T07:25:05.728Z,5.90
2018-01-23T07:27:33.221Z,6.00
2018-01-23T07:30:00.749Z,6.00
2018-01-23T07:32:28.226Z,6.00
2018-01-23T07:34:55.718Z,6.00
2018-01-23T07:37:23.972Z,6.00
2018-01-23T07:42:44.339Z,6.00
2018-01-23T07:45:12.598Z,6.10
2018-01-23T07:47:40.066Z,6.00
2018-01-23T07:50:07.562Z,6.10
2018-01-23T07:52:35.804Z,6.10
2018-01-23T07:55:03.295Z,6.10
2018-01-23T07:57:30.779Z,6.10
2018-01-23T07:59:59.247Z,6.00
2018-01-23T08:02:26.758Z,6.00
2018-01-23T08:04:55.005Z,6.00
2018-01-23T08:07:22.499Z,6.00
2018-01-23T08:09:49.984Z,6.10
2018-01-23T08:12:19.366Z,6.20
2018-01-23T08:14:49.901Z,6.10
2018-01-23T08:17:19.320Z,6.20
2018-01-23T08:19:50.070Z,6.30
2018-01-23T08:22:29.603Z,6.20
2018-01-23T08:24:58.084Z,6.20
2018-01-23T08:30:22.501Z,6.20
2018-01-23T08:32:57.259Z,6.20
2018-01-23T08:35:38.807Z,6.20
2018-01-23T08:38:08.330Z,6.20
2018-01-23T08:40:36.596Z,6.20
2018-01-23T08:46:04.072Z,6.10
2018-01-23T08:48:34.597Z,6.20
2018-01-23T08:51:02.142Z,6.10
2018-01-23T08:53:31.440Z,6.20
2018-01-23T08:56:22.125Z,6.20
2018-01-23T08:58:51.585Z,6.30
2018-01-23T09:07:15.688Z,6.30
2018-01-23T09:09:46.438Z,6.30
2018-01-23T09:12:14.861Z,6.40
2018-01-23T09:14:50.264Z,6.30
2018-01-23T09:17:17.817Z,6.30
2018-01-23T09:19:48.850Z,6.30
2018-01-23T09:22:16.347Z,6.30
2018-01-23T09:24:44.621Z,6.30
2018-01-23T09:27:12.107Z,6.30
2018-01-23T09:29:40.377Z,6.30
2018-01-23T09:32:29.286Z,6.30
2018-01-23T09:34:56.777Z,6.40
2018-01-23T09:37:24.268Z,6.40
2018-01-23T09:40:02.672Z,6.40
2018-01-23T09:42:34.505Z,6.50
2018-01-23T09:45:04.695Z,6.40
2018-01-23T09:50:26.577Z,6.50
2018-01-23T09:52:58.050Z,6.60
2018-01-23T09:55:25.551Z,6.60
2018-01-23T09:58:04.116Z,6.60
2018-01-23T10:03:25.218Z,6.60
2018-01-23T10:05:52.700Z,6.70
2018-01-23T10:08:20.972Z,6.80
2018-01-23T10:10:48.461Z,6.70
2018-01-23T10:13:16.738Z,6.80
2018-01-23T10:15:44.216Z,6.80
2018-01-23T10:18:20.345Z,6.90
2018-01-23T10:20:47.821Z,6.90
2018-01-23T10:23:15.320Z,7.00
2018-01-23T10:25:42.836Z,6.90
2018-01-23T10:28:10.333Z,6.90
2018-01-23T10:30:37.848Z,6.90
2018-01-23T10:33:06.112Z,7.00
2018-01-23T10:35:33.633Z,7.00
2018-01-23T10:38:19.591Z,7.00
2018-01-23T10:40:53.695Z,7.10
2018-01-23T10:43:23.186Z,7.00
2018-01-23T10:45:50.695Z,7.10
2018-01-23T10:48:18.187Z,7.10
2018-01-23T10:50:51.460Z,7.10
2018-01-23T10:53:31.414Z,7.10
2018-01-23T10:56:01.000Z,7.10
2018-01-23T10:58:28.513Z,7.10
2018-01-23T11:01:08.544Z,7.10
2018-01-23T11:03:36.037Z,7.20
2018-01-23T11:06:03.574Z,7.20
2018-01-23T11:08:38.409Z,7.20
2018-01-23T11:11:11.364Z,7.30
2018-01-23T11:13:38.887Z,7.20
2018-01-23T11:16:06.395Z,7.20
2018-01-23T11:18:33.903Z,7.20
2018-01-23T11:21:03.396Z,7.20
2018-01-23T11:23:30.893Z,7.30
2018-01-23T11:25:59.193Z,7.40
2018-01-23T11:28:26.682Z,7.30
2018-01-23T11:30:54.213Z,7.40
2018-01-23T11:33:22.479Z,7.50
2018-01-23T11:35:50.001Z,7.40
2018-01-23T11:38:17.493Z,7.40
2018-01-23T11:40:46.009Z,7.40
2018-01-23T11:43:19.029Z,7.50
2018-01-23T11:45:46.522Z,7.50
2018-01-23T11:48:14.791Z,7.50
2018-01-23T11:50:43.043Z,7.50
2018-01-23T11:53:10.542Z,7.50
2018-01-23T11:55:38.045Z,7.50
2018-01-23T11:58:05.566Z,7.50
2018-01-23T12:00:35.067Z,7.50
2018-01-23T12:03:15.187Z,7.50
2018-01-23T12:05:43.442Z,7.50
2018-01-23T12:08:10.984Z,7.50
2018-01-23T12:10:45.604Z,7.60
2018-01-23T12:13:14.045Z,7.60
2018-01-23T12:15:41.590Z,7.60
2018-01-23T12:18:19.382Z,7.60
2018-01-23T12:20:52.327Z,7.70
2018-01-23T12:23:19.895Z,7.80
2018-01-23T12:25:47.384Z,7.90
2018-01-23T12:28:14.880Z,8.10
2018-01-23T12:30:42.371Z,8.10
2018-01-23T12:33:10.011Z,8.10
2018-01-23T12:35:41.949Z,8.40
2018-01-23T12:38:09.476Z,8.40
2018-01-23T12:40:43.387Z,8.50
2018-01-23T12:43:12.657Z,8.40
2018-01-23T12:45:41.116Z,8.40
2018-01-23T12:48:10.591Z,8.40
2018-01-23T12:50:51.455Z,8.40
2018-01-23T12:53:18.959Z,8.30
2018-01-23T12:55:47.203Z,8.30
2018-01-23T12:58:14.728Z,8.30
2018-01-23T13:00:42.364Z,8.30
2018-01-23T13:03:09.868Z,8.30
2018-01-23T13:05:37.349Z,8.20
2018-01-23T13:08:04.842Z,8.20
2018-01-23T13:10:32.323Z,8.20
2018-01-23T13:12:59.833Z,8.20
2018-01-23T13:15:28.083Z,8.30
2018-01-23T13:17:55.571Z,8.20
2018-01-23T13:20:23.097Z,8.30
2018-01-23T13:22:50.571Z,8.30
2018-01-23T13:25:18.064Z,8.30
2018-01-23T13:27:45.548Z,8.50
2018-01-23T13:30:30.925Z,8.50
2018-01-23T13:33:01.952Z,8.60
2018-01-23T13:35:29.448Z,8.50
2018-01-23T13:37:56.936Z,8.40
2018-01-23T13:40:24.450Z,8.40
2018-01-23T13:42:51.931Z,8.40
2018-01-23T13:45:19.441Z,8.40
2018-01-23T13:47:46.922Z,8.40
2018-01-23T13:50:14.439Z,8.40
2018-01-23T13:52:42.700Z,8.40
2018-01-23T13:55:10.975Z,8.40
2018-01-23T13:57:38.456Z,8.30
2018-01-23T14:00:27.445Z,8.40
2018-01-23T14:02:54.930Z,8.30
2018-01-23T14:05:33.055Z,8.40
2018-01-23T14:10:55.784Z,8.30
2018-01-23T14:13:33.303Z,8.30
2018-01-23T14:16:04.720Z,8.30
2018-01-23T14:18:32.253Z,8.40
2018-01-23T14:21:00.519Z,8.30
2018-01-23T14:23:28.041Z,8.30
2018-01-23T14:25:57.490Z,8.30
2018-01-23T14:28:41.568Z,8.30
2018-01-23T14:31:21.627Z,8.30
2018-01-23T14:34:04.023Z,8.30
2018-01-23T14:36:31.546Z,8.30
2018-01-23T14:38:59.851Z,8.30
2018-01-23T14:41:27.358Z,8.30
2018-01-23T14:43:54.863Z,8.30
2018-01-23T14:46:22.363Z,8.20
2018-01-23T14:48:49.842Z,8.20
2018-01-23T14:51:17.359Z,8.20
2018-01-23T14:53:44.840Z,8.30
2018-01-23T14:56:12.595Z,8.30
2018-01-23T14:58:40.076Z,8.20
2018-01-23T15:01:08.492Z,8.30
2018-01-23T15:03:35.971Z,8.30
2018-01-23T15:06:04.265Z,8.20
2018-01-23T15:08:31.763Z,8.20
2018-01-23T15:10:59.263Z,8.30
2018-01-23T15:13:26.756Z,8.30
2018-01-23T15:15:55.044Z,8.30
2018-01-23T15:18:23.331Z,8.30
2018-01-23T15:20:51.592Z,8.20
2018-01-23T15:23:19.136Z,8.20
2018-01-23T15:25:59.747Z,8.20
2018-01-23T15:28:30.378Z,8.20
2018-01-23T15:30:57.856Z,8.20
2018-01-23T15:33:25.350Z,8.20
2018-01-23T15:35:52.844Z,8.20
2018-01-23T15:38:21.113Z,8.20
2018-01-23T15:40:49.363Z,8.10
2018-01-23T15:43:16.867Z,8.00
2018-01-23T15:45:44.347Z,8.20
2018-01-23T15:48:12.616Z,8.10
2018-01-23T15:50:40.463Z,8.10
2018-01-23T15:53:07.975Z,8.10
2018-01-23T15:55:35.459Z,8.10
2018-01-23T15:58:03.039Z,8.10
2018-01-23T16:00:30.562Z,8.10
2018-01-23T16:02:58.068Z,8.10
2018-01-23T16:05:26.327Z,8.20
2018-01-23T16:07:53.827Z,8.10
2018-01-23T16:10:22.078Z,8.10
2018-01-23T16:12:49.582Z,8.10
2018-01-23T16:15:17.829Z,8.10
2018-01-23T16:17:45.348Z,8.00
2018-01-23T16:20:20.807Z,8.00
2018-01-23T16:22:54.784Z,8.00
2018-01-23T16:25:23.292Z,8.00
2018-01-23T16:27:52.807Z,8.00
2018-01-23T16:33:23.140Z,8.00
2018-01-23T16:36:02.104Z,8.00
2018-01-23T16:38:35.847Z,8.00
2018-01-23T16:41:03.333Z,7.90
2018-01-23T16:43:31.603Z,7.90
2018-01-23T16:46:02.517Z,7.80
2018-01-23T16:48:44.687Z,7.90
2018-01-23T16:51:13.949Z,7.70
2018-01-23T16:53:48.405Z,7.80
2018-01-23T16:56:19.673Z,7.70
2018-01-23T16:58:48.143Z,7.80
2018-01-23T17:01:32.420Z,7.70
2018-01-23T17:04:12.142Z,7.70
2018-01-23T17:07:01.175Z,7.70
2018-01-23T17:09:28.674Z,7.70
2018-01-23T17:11:56.164Z,7.70
2018-01-23T17:14:23.679Z,7.70
2018-01-23T17:16:51.163Z,7.70
2018-01-23T17:19:19.423Z,7.70
2018-01-23T17:21:46.899Z,7.70
2018-01-23T17:24:22.104Z,7.70
2018-01-23T17:26:49.595Z,7.60
2018-01-23T17:29:17.082Z,7.70
2018-01-23T17:32:01.476Z,7.60
2018-01-23T17:34:32.736Z,7.60
2018-01-23T17:37:10.259Z,7.60
2018-01-23T17:39:37.792Z,7.60
2018-01-23T17:42:05.279Z,7.60
2018-01-23T17:44:32.765Z,7.70
2018-01-23T17:47:01.047Z,7.70
2018-01-23T17:49:29.295Z,7.80
2018-01-23T17:51:56.799Z,7.70
2018-01-23T17:54:24.293Z,7.70
2018-01-23T17:56:52.563Z,7.80
2018-01-23T17:59:20.057Z,7.80
2018-01-23T18:01:50.579Z,7.80
2018-01-23T18:04:18.840Z,7.80
2018-01-23T18:06:46.335Z,7.70
2018-01-23T18:09:13.819Z,7.80
2018-01-23T18:11:42.079Z,7.90
2018-01-23T18:14:09.554Z,7.80
2018-01-23T18:16:37.055Z,7.90
2018-01-23T18:19:05.294Z,7.90
2018-01-23T18:21:32.795Z,7.90
2018-01-23T18:24:01.043Z,8.00
2018-01-23T18:26:28.548Z,7.90
2018-01-23T18:28:56.032Z,8.00
2018-01-23T18:31:24.291Z,8.00
2018-01-23T18:33:51.769Z,8.00
2018-01-23T18:36:19.289Z,8.10
2018-01-23T18:39:08.275Z,8.00
2018-01-23T18:41:35.772Z,8.00
2018-01-23T18:44:03.251Z,8.10
2018-01-23T18:49:30.188Z,8.00
2018-01-23T18:51:57.689Z,8.00
2018-01-23T18:54:25.168Z,8.00
2018-01-23T18:56:52.738Z,7.90
2018-01-23T18:59:20.230Z,7.90
2018-01-23T19:01:47.727Z,7.90
2018-01-23T19:04:28.787Z,7.80
2018-01-23T19:07:04.923Z,7.80
2018-01-23T19:09:32.403Z,7.80
2018-01-23T19:12:04.640Z,7.80
2018-01-23T19:14:33.880Z,7.80
2018-01-23T19:17:13.847Z,7.70
2018-01-23T19:19:41.336Z,7.80
2018-01-23T19:22:08.816Z,7.70
2018-01-23T19:24:36.316Z,7.60
2018-01-23T19:27:04.547Z,7.60
2018-01-23T19:29:32.051Z,7.60
2018-01-23T19:31:59.527Z,7.60
2018-01-23T19:34:27.024Z,7.60
2018-01-23T19:36:55.266Z,7.50
2018-01-23T19:39:22.769Z,7.50
2018-01-23T19:41:51.023Z,7.50
2018-01-23T19:44:18.522Z,7.40
2018-01-23T19:46:45.995Z,7.50
2018-01-23T19:49:13.499Z,7.40
2018-01-23T19:51:41.003Z,7.50
2018-01-23T19:54:08.519Z,7.60
2018-01-23T19:56:36.776Z,7.60
2018-01-23T19:59:10.160Z,7.60
2018-01-23T20:01:40.684Z,7.50
2018-01-23T20:04:08.198Z,7.60
2018-01-23T20:06:35.679Z,7.60
2018-01-23T20:09:03.181Z,7.60
2018-01-23T20:11:31.506Z,7.60
2018-01-23T20:13:59.004Z,7.60
2018-01-23T20:16:26.494Z,7.60
2018-01-23T20:18:54.796Z,7.70
2018-01-23T20:21:22.279Z,7.70
2018-01-23T20:23:49.787Z,7.70
2018-01-23T20:26:17.317Z,7.70
2018-01-23T20:28:45.560Z,7.60
2018-01-23T20:31:13.064Z,7.60
2018-01-23T20:33:40.547Z,7.70
2018-01-23T20:36:08.046Z,7.70
2018-01-23T20:38:35.518Z,7.70
2018-01-23T20:41:03.027Z,7.70
2018-01-23T20:43:31.291Z,7.90
2018-01-23T20:45:58.790Z,7.80
2018-01-23T20:48:27.070Z,7.90
2018-01-23T20:50:54.568Z,7.90
2018-01-23T20:53:22.059Z,7.90
2018-01-23T20:55:49.563Z,7.90
2018-01-23T20:58:17.048Z,8.00
2018-01-23T21:00:46.531Z,8.00
2018-01-23T21:03:14.012Z,8.00
2018-01-23T21:05:41.508Z,8.00
2018-01-23T21:08:08.999Z,8.00
2018-01-23T21:10:37.259Z,8.00
2018-01-23T21:13:04.740Z,8.00
2018-01-23T21:15:33.036Z,8.00
2018-01-23T21:18:01.284Z,8.00
2018-01-23T21:20:28.792Z,8.00
2018-01-23T21:22:57.039Z,8.00
2018-01-23T21:25:24.540Z,8.00
2018-01-23T21:27:52.802Z,8.10
2018-01-23T21:30:20.391Z,8.00
2018-01-23T21:32:48.562Z,8.10
2018-01-23T21:35:16.052Z,8.00
2018-01-23T21:37:43.527Z,8.10
2018-01-23T21:40:11.799Z,8.10
2018-01-23T21:42:39.275Z,8.00
2018-01-23T21:45:06.771Z,8.00
2018-01-23T21:47:35.030Z,8.10
2018-01-23T21:50:02.531Z,8.00
2018-01-23T21:52:30.008Z,8.10
2018-01-23T21:54:57.555Z,8.10
2018-01-23T21:57:25.005Z,8.10
2018-01-23T22:02:58.965Z,8.10
2018-01-23T22:05:26.472Z,8.10
2018-01-23T22:07:53.996Z,8.10
2018-01-23T22:10:21.507Z,8.10
2018-01-23T22:12:49.746Z,8.20
2018-01-23T22:15:17.242Z,8.10
2018-01-23T22:17:44.723Z,8.20
2018-01-23T22:20:12.986Z,8.20
2018-01-23T22:22:40.463Z,8.10
2018-01-23T22:25:08.000Z,8.10
2018-01-23T22:27:36.396Z,8.10
2018-01-23T22:30:03.907Z,8.10
2018-01-23T22:32:31.386Z,8.10
2018-01-23T22:34:59.646Z,8.20
2018-01-23T22:37:27.124Z,8.10
2018-01-23T22:40:06.100Z,8.10
2018-01-23T22:42:33.583Z,8.20
2018-01-23T22:45:01.083Z,8.10
2018-01-23T22:47:28.564Z,8.10
2018-01-23T22:49:56.051Z,8.10
2018-01-23T22:52:23.523Z,8.10
2018-01-23T22:54:51.018Z,8.10
2018-01-23T22:57:18.494Z,8.10
2018-01-23T22:59:45.987Z,8.10
2018-01-23T23:02:13.462Z,8.20
2018-01-23T23:04:40.959Z,8.00
2018-01-23T23:07:08.426Z,8.10
2018-01-23T23:09:35.921Z,8.20
2018-01-23T23:12:04.156Z,8.20
2018-01-23T23:14:31.643Z,8.10
2018-01-23T23:16:59.115Z,8.20
2018-01-23T23:19:26.591Z,8.20
2018-01-23T23:21:54.084Z,8.20
2018-01-23T23:24:21.718Z,8.20
2018-01-23T23:27:02.372Z,8.10
2018-01-23T23:29:29.916Z,8.20
2018-01-23T23:32:00.102Z,8.20
2018-01-23T23:34:27.608Z,8.10
2018-01-23T23:36:55.381Z,8.20
2018-01-23T23:39:22.895Z,8.10
2018-01-23T23:41:50.389Z,8.10
2018-01-23T23:44:17.863Z,8.10
2018-01-23T23:46:45.354Z,8.10
2018-01-23T23:49:12.831Z,8.10
2018-01-23T23:51:40.319Z,8.10
2018-01-23T23:54:08.558Z,8.10
2018-01-23T23:56:36.051Z,8.10
2018-01-23T23:59:03.527Z,8.10
